createdAt,value
2022-09-02T00:00:54.111Z,7.97
2022-09-02T00:03:24.615Z,7.03
2022-09-02T00:05:53.862Z,6.53
2022-09-02T00:08:22.873Z,6.78
2022-09-02T00:10:52.118Z,7.55
2022-09-02T00:13:21.728Z,6.13
2022-09-02T00:15:51.129Z,6.40
2022-09-02T00:18:20.091Z,6.43
2022-09-02T00:20:51.005Z,6.63
2022-09-02T00:23:20.534Z,5.63
2022-09-02T00:25:49.591Z,5.93
2022-09-02T00:28:18.816Z,6.03
2022-09-02T00:30:49.893Z,5.13
2022-09-02T00:33:19.286Z,6.53
2022-09-02T00:35:50.397Z,6.10
2022-09-02T00:38:19.799Z,5.50
2022-09-02T00:40:50.235Z,5.82
2022-09-02T00:43:39.599Z,6.00
2022-09-02T00:46:08.867Z,5.47
2022-09-02T00:48:40.207Z,5.57
2022-09-02T00:51:11.802Z,5.72
2022-09-02T00:53:42.717Z,5.82
2022-09-02T00:56:14.096Z,5.47
2022-09-02T00:58:44.265Z,5.78
2022-09-02T01:01:13.996Z,5.80
2022-09-02T01:03:43.739Z,5.35
2022-09-02T01:06:15.517Z,5.80
2022-09-02T01:08:47.948Z,5.82
2022-09-02T01:11:19.924Z,6.83
2022-09-02T01:13:49.626Z,6.47
2022-09-02T01:16:23.392Z,6.65
2022-09-02T01:18:53.945Z,6.72
2022-09-02T01:21:24.800Z,5.72
2022-09-02T01:23:55.990Z,7.45
2022-09-02T01:26:25.489Z,7.30
2022-09-02T01:28:54.827Z,7.18
2022-09-02T01:31:23.855Z,7.75
2022-09-02T01:33:52.958Z,6.25
2022-09-02T01:36:22.720Z,6.90
2022-09-02T01:38:51.882Z,6.10
2022-09-02T01:41:22.824Z,5.97
2022-09-02T01:43:51.948Z,6.88
2022-09-02T01:46:21.065Z,6.45
2022-09-02T01:48:50.195Z,7.30
2022-09-02T01:51:20.115Z,6.60
2022-09-02T01:53:49.689Z,7.05
2022-09-02T01:56:18.929Z,6.50
2022-09-02T01:58:49.503Z,6.72
2022-09-02T02:01:18.637Z,6.13
2022-09-02T02:03:49.579Z,5.85
2022-09-02T02:06:20.441Z,5.78
2022-09-02T02:08:50.572Z,5.68
2022-09-02T02:11:20.936Z,5.75
2022-09-02T02:13:54.856Z,6.15
2022-09-02T02:16:24.087Z,6.35
2022-09-02T02:18:53.583Z,6.35
2022-09-02T02:21:22.656Z,5.90
2022-09-02T02:23:53.204Z,5.82
2022-09-02T02:26:22.398Z,6.60
2022-09-02T02:28:53.252Z,6.30
2022-09-02T02:31:24.634Z,5.78
2022-09-02T02:33:53.701Z,5.95
2022-09-02T02:36:24.154Z,6.28
2022-09-02T02:38:53.222Z,6.05
2022-09-02T02:41:22.534Z,6.25
2022-09-02T02:43:51.970Z,5.93
2022-09-02T02:46:21.055Z,6.28
2022-09-02T02:48:51.604Z,5.50
2022-09-02T02:51:20.685Z,5.32
2022-09-02T02:53:55.745Z,5.65
2022-09-02T02:56:28.501Z,5.35
2022-09-02T02:58:57.666Z,5.57
2022-09-02T03:01:26.863Z,5.43
2022-09-02T03:04:00.462Z,5.35
2022-09-02T03:06:30.573Z,5.38
2022-09-02T03:09:00.913Z,5.35
2022-09-02T03:11:30.817Z,5.28
2022-09-02T03:14:02.155Z,4.88
2022-09-02T03:16:31.376Z,6.28
2022-09-02T03:19:02.969Z,5.20
2022-09-02T03:21:38.768Z,4.78
2022-09-02T03:24:09.715Z,4.50
2022-09-02T03:26:39.916Z,5.00
2022-09-02T03:29:09.095Z,5.22
2022-09-02T03:31:38.358Z,5.75
2022-09-02T03:34:12.061Z,5.60
2022-09-02T03:36:44.108Z,5.43
2022-09-02T03:39:14.032Z,5.50
2022-09-02T03:41:45.594Z,5.40
2022-09-02T03:44:14.650Z,5.25
2022-09-02T03:46:45.458Z,5.22
2022-09-02T03:49:15.993Z,4.82
2022-09-02T03:51:45.159Z,4.82
2022-09-02T03:54:14.800Z,5.43
2022-09-02T03:56:44.194Z,5.28
2022-09-02T03:59:16.212Z,5.40
2022-09-02T04:01:45.472Z,5.75
2022-09-02T04:04:19.670Z,5.03
2022-09-02T04:06:53.037Z,4.85
2022-09-02T04:09:22.684Z,4.72
2022-09-02T04:11:51.692Z,4.85
2022-09-02T04:14:21.312Z,4.88
2022-09-02T04:16:51.373Z,5.13
2022-09-02T04:19:23.574Z,5.00
2022-09-02T04:21:53.990Z,4.37
2022-09-02T04:24:24.917Z,4.82
2022-09-02T04:26:54.810Z,4.63
2022-09-02T04:29:24.310Z,4.50
2022-09-02T04:31:57.079Z,4.13
2022-09-02T04:34:33.066Z,4.30
2022-09-02T04:37:03.477Z,4.63
2022-09-02T04:39:33.010Z,4.78
2022-09-02T04:42:03.263Z,4.60
2022-09-02T04:44:39.364Z,5.25
2022-09-02T04:47:12.575Z,4.90
2022-09-02T04:49:46.230Z,4.65
2022-09-02T04:52:24.936Z,4.88
2022-09-02T04:54:57.153Z,5.25
2022-09-02T04:57:27.140Z,4.95
2022-09-02T04:59:57.253Z,4.90
2022-09-02T05:02:28.099Z,5.43
2022-09-02T05:05:02.613Z,4.38
2022-09-02T05:07:39.568Z,4.82
2022-09-02T05:10:14.531Z,5.45
2022-09-02T05:12:47.565Z,5.18
2022-09-02T05:15:17.314Z,5.35
2022-09-02T05:17:50.402Z,5.35
2022-09-02T05:20:25.529Z,5.32
2022-09-02T05:25:32.126Z,4.50
2022-09-02T05:28:04.951Z,6.10
2022-09-02T05:30:37.489Z,5.57
2022-09-02T05:33:09.782Z,4.35
2022-09-02T05:35:50.002Z,4.90
2022-09-02T05:38:23.458Z,5.13
2022-09-02T05:40:54.118Z,5.47
2022-09-02T05:43:24.957Z,4.35
2022-09-02T05:45:54.752Z,5.20
2022-09-02T05:48:43.703Z,4.15
2022-09-02T05:51:15.436Z,5.18
2022-09-02T05:53:47.695Z,4.97
2022-09-02T05:56:19.002Z,5.35
2022-09-02T05:58:50.646Z,4.73
2022-09-02T06:03:55.722Z,5.10
2022-09-02T06:06:26.525Z,4.65
2022-09-02T06:08:58.676Z,5.35
2022-09-02T06:14:06.512Z,5.55
2022-09-02T06:16:40.464Z,5.53
2022-09-02T06:19:20.159Z,5.68
2022-09-02T06:21:56.404Z,4.47
2022-09-02T06:24:32.501Z,3.72
2022-09-02T06:27:13.227Z,4.88
2022-09-02T06:29:47.941Z,4.82
2022-09-02T06:32:21.960Z,3.80
2022-09-02T06:34:58.123Z,4.32
2022-09-02T06:37:32.913Z,4.05
2022-09-02T06:40:02.576Z,3.78
2022-09-02T06:42:37.381Z,3.85
2022-09-02T06:45:16.320Z,3.30
2022-09-02T06:47:48.954Z,4.00
2022-09-02T06:50:21.982Z,3.08
2022-09-02T06:52:57.895Z,4.35
2022-09-02T06:55:30.286Z,3.75
2022-09-02T06:58:00.525Z,3.83
2022-09-02T07:00:32.304Z,4.00
2022-09-02T07:03:22.487Z,6.70
2022-09-02T07:06:02.373Z,8.77
2022-09-02T07:08:37.689Z,9.85
2022-09-02T07:11:17.708Z,11.55
2022-09-02T07:13:55.233Z,9.80
2022-09-02T07:16:26.905Z,10.35
2022-09-02T07:18:58.667Z,8.80
2022-09-02T07:21:30.637Z,8.75
2022-09-02T07:24:05.055Z,8.52
2022-09-02T07:26:34.420Z,7.03
2022-09-02T07:29:12.043Z,7.20
2022-09-02T07:31:55.502Z,5.60
2022-09-02T07:34:29.370Z,4.80
2022-09-02T07:37:05.147Z,5.90
2022-09-02T07:39:46.266Z,3.78
2022-09-02T07:42:19.886Z,5.20
2022-09-02T07:44:56.034Z,4.70
2022-09-02T07:47:37.731Z,3.55
2022-09-02T07:50:18.901Z,3.97
2022-09-02T07:53:00.481Z,3.60
2022-09-02T07:55:36.442Z,3.58
2022-09-02T07:58:16.048Z,3.25
2022-09-02T08:00:46.699Z,3.13
2022-09-02T08:03:19.578Z,3.40
2022-09-02T08:05:57.652Z,2.90
2022-09-02T08:08:30.337Z,2.80
2022-09-02T08:11:04.049Z,3.58
2022-09-02T08:13:38.922Z,3.03
2022-09-02T08:16:11.566Z,3.20
2022-09-02T08:18:40.961Z,3.10
2022-09-02T08:21:15.129Z,3.83
2022-09-02T08:23:49.313Z,3.72
2022-09-02T08:26:39.062Z,4.35
2022-09-02T08:29:11.096Z,3.03
2022-09-02T08:31:42.289Z,2.90
2022-09-02T08:34:12.975Z,2.80
2022-09-02T08:36:45.372Z,3.17
2022-09-02T08:39:26.350Z,2.92
2022-09-02T08:42:14.070Z,3.40
2022-09-02T08:44:43.531Z,3.28
2022-09-02T08:47:18.144Z,2.90
2022-09-02T08:49:49.541Z,2.63
2022-09-02T08:52:25.984Z,2.80
2022-09-02T08:54:58.103Z,3.28
2022-09-02T08:57:29.095Z,4.10
2022-09-02T09:00:01.237Z,3.35
2022-09-02T09:02:35.842Z,2.90
2022-09-02T09:05:14.943Z,2.63
2022-09-02T09:07:53.797Z,2.42
2022-09-02T09:10:31.663Z,2.53
2022-09-02T09:13:18.752Z,2.97
2022-09-02T09:15:52.765Z,2.63
2022-09-02T09:18:25.513Z,2.85
2022-09-02T09:20:58.701Z,3.33
2022-09-02T09:23:34.765Z,2.33
2022-09-02T09:26:09.716Z,2.78
2022-09-02T09:28:47.161Z,2.17
2022-09-02T09:31:18.769Z,2.15
2022-09-02T09:33:58.090Z,2.13
2022-09-02T09:36:51.442Z,2.30
2022-09-02T09:39:27.523Z,2.00
2022-09-02T09:41:57.878Z,1.60
2022-09-02T09:44:37.003Z,2.30
2022-09-02T09:47:08.466Z,1.90
2022-09-02T09:49:40.410Z,2.15
2022-09-02T09:52:13.094Z,3.00
2022-09-02T09:54:52.124Z,2.13
2022-09-02T09:57:24.348Z,2.17
2022-09-02T10:00:27.369Z,2.83
2022-09-02T10:02:57.788Z,2.30
2022-09-02T10:05:42.248Z,2.10
2022-09-02T10:08:25.516Z,2.40
2022-09-02T10:11:01.937Z,1.83
2022-09-02T10:13:33.030Z,2.08
2022-09-02T10:16:25.611Z,2.50
2022-09-02T10:19:15.701Z,1.98
2022-09-02T10:21:55.996Z,2.50
2022-09-02T10:25:02.036Z,2.38
2022-09-02T10:27:38.508Z,3.53
2022-09-02T10:30:12.655Z,2.47
2022-09-02T10:33:11.271Z,1.40
2022-09-02T10:35:59.662Z,1.90
2022-09-02T10:38:49.499Z,1.88
2022-09-02T10:41:33.494Z,2.03
2022-09-02T10:44:31.406Z,1.80
2022-09-02T10:47:02.581Z,2.05
2022-09-02T10:49:59.835Z,2.03
2022-09-02T10:52:43.898Z,1.70
2022-09-02T10:55:23.447Z,1.75
2022-09-02T10:58:17.817Z,1.80
2022-09-02T11:00:55.527Z,1.70
2022-09-02T11:03:36.155Z,1.52
2022-09-02T11:06:40.366Z,1.63
2022-09-02T11:09:30.069Z,1.95
2022-09-02T11:12:29.339Z,1.55
2022-09-02T11:15:13.988Z,2.25
2022-09-02T11:17:57.864Z,1.90
2022-09-02T11:20:40.087Z,1.85
2022-09-02T11:23:32.485Z,2.25
2022-09-02T11:26:15.346Z,2.22
2022-09-02T11:28:54.814Z,2.20
2022-09-02T11:31:28.423Z,1.90
2022-09-02T11:34:18.282Z,2.30
2022-09-02T11:36:57.242Z,2.50
2022-09-02T11:39:54.412Z,2.10
2022-09-02T11:42:57.669Z,2.40
2022-09-02T11:48:57.912Z,2.45
2022-09-02T11:51:38.962Z,2.55
2022-09-02T11:54:20.390Z,2.08
2022-09-02T11:57:01.856Z,3.30
2022-09-02T11:59:47.528Z,2.67
2022-09-02T12:02:34.682Z,2.47
2022-09-02T12:05:19.618Z,2.60
2022-09-02T12:07:57.281Z,2.78
2022-09-02T12:10:44.670Z,2.30
2022-09-02T12:13:34.927Z,2.60
2022-09-02T12:16:48.121Z,3.03
2022-09-02T12:19:29.276Z,2.47
2022-09-02T12:22:22.118Z,2.75
2022-09-02T12:24:53.945Z,3.15
2022-09-02T12:27:31.647Z,2.53
2022-09-02T12:30:23.037Z,2.60
2022-09-02T12:33:03.170Z,2.70
2022-09-02T12:35:53.483Z,2.53
2022-09-02T12:38:30.936Z,2.58
2022-09-02T12:41:13.603Z,3.42
2022-09-02T12:43:49.795Z,3.45
2022-09-02T12:46:24.622Z,3.00
2022-09-02T12:49:01.768Z,3.13
2022-09-02T12:51:57.021Z,3.60
2022-09-02T12:54:39.043Z,4.90
2022-09-02T12:57:18.134Z,3.40
2022-09-02T12:59:51.976Z,3.10
2022-09-02T13:02:36.469Z,2.67
2022-09-02T13:05:23.974Z,3.22
2022-09-02T13:08:11.595Z,3.10
2022-09-02T13:10:57.820Z,3.47
2022-09-02T13:13:44.657Z,3.53
2022-09-02T13:16:25.722Z,3.95
2022-09-02T13:19:22.315Z,3.65
2022-09-02T13:22:23.124Z,3.63
2022-09-02T13:25:22.873Z,3.83
2022-09-02T13:28:11.175Z,4.13
2022-09-02T13:30:55.252Z,3.90
2022-09-02T13:33:26.098Z,3.40
2022-09-02T13:36:05.677Z,4.07
2022-09-02T13:38:36.386Z,4.15
2022-09-02T13:41:13.224Z,4.45
2022-09-02T13:44:19.501Z,4.55
2022-09-02T13:47:04.321Z,4.32
2022-09-02T13:49:42.913Z,4.45
2022-09-02T13:52:17.112Z,5.28
2022-09-02T13:54:57.228Z,4.57
2022-09-02T13:57:37.562Z,4.30
2022-09-02T14:00:12.287Z,4.38
2022-09-02T14:03:17.367Z,4.70
2022-09-02T14:06:28.034Z,6.07
2022-09-02T14:09:00.505Z,5.88
2022-09-02T14:11:38.374Z,6.50
2022-09-02T14:14:35.408Z,7.10
2022-09-02T14:17:26.306Z,6.85
2022-09-02T14:20:13.731Z,6.47
2022-09-02T14:22:54.096Z,6.25
2022-09-02T14:25:30.712Z,6.05
2022-09-02T14:28:14.210Z,5.95
2022-09-02T14:30:43.745Z,6.18
2022-09-02T14:33:20.520Z,6.72
2022-09-02T14:36:11.727Z,6.32
2022-09-02T14:38:54.913Z,7.03
2022-09-02T14:41:26.857Z,6.63
2022-09-02T14:44:02.304Z,5.93
2022-09-02T14:46:35.463Z,6.68
2022-09-02T14:49:08.014Z,6.13
2022-09-02T14:51:43.853Z,5.65
2022-09-02T14:54:34.322Z,5.70
2022-09-02T14:57:20.212Z,5.93
2022-09-02T14:59:55.392Z,6.35
2022-09-02T15:02:36.887Z,5.75
2022-09-02T15:05:16.711Z,6.18
2022-09-02T15:07:52.563Z,6.03
2022-09-02T15:10:24.298Z,7.10
2022-09-02T15:13:04.667Z,7.93
2022-09-02T15:15:42.892Z,8.15
2022-09-02T15:18:18.771Z,8.13
2022-09-02T15:20:48.182Z,8.52
2022-09-02T15:23:18.988Z,8.55
2022-09-02T15:25:48.734Z,8.60
2022-09-02T15:28:22.815Z,7.72
2022-09-02T15:31:03.779Z,7.18
2022-09-02T15:33:40.869Z,7.40
2022-09-02T15:36:15.354Z,8.27
2022-09-02T15:38:58.629Z,8.23
2022-09-02T15:41:34.015Z,7.82
2022-09-02T15:44:10.368Z,7.90
2022-09-02T15:46:41.505Z,9.02
2022-09-02T15:49:15.768Z,7.80
2022-09-02T15:51:46.058Z,9.02
2022-09-02T15:54:22.170Z,9.23
2022-09-02T15:56:59.757Z,9.77
2022-09-02T15:59:31.301Z,10.10
2022-09-02T16:02:00.892Z,10.27
2022-09-02T16:04:30.147Z,9.88
2022-09-02T16:07:01.561Z,10.60
2022-09-02T16:09:32.456Z,9.30
2022-09-02T16:12:01.726Z,9.80
2022-09-02T16:14:38.672Z,9.63
2022-09-02T16:17:19.137Z,9.20
2022-09-02T16:19:51.867Z,10.80
2022-09-02T16:22:23.457Z,11.20
2022-09-02T16:24:58.531Z,11.82
2022-09-02T16:27:45.541Z,12.20
2022-09-02T16:30:22.205Z,10.75
2022-09-02T16:32:52.032Z,12.32
2022-09-02T16:35:25.919Z,12.02
2022-09-02T16:38:06.302Z,13.05
2022-09-02T16:40:47.617Z,12.23
2022-09-02T16:43:20.729Z,13.23
2022-09-02T16:45:59.457Z,11.18
2022-09-02T16:48:38.516Z,11.80
2022-09-02T16:51:13.271Z,11.55
2022-09-02T16:54:01.810Z,11.80
2022-09-02T16:56:45.205Z,10.82
2022-09-02T16:59:21.721Z,11.75
2022-09-02T17:02:03.085Z,11.18
2022-09-02T17:04:46.579Z,11.07
2022-09-02T17:07:19.088Z,10.68
2022-09-02T17:09:53.650Z,10.95
2022-09-02T17:12:30.173Z,11.82
2022-09-02T17:14:59.913Z,11.35
2022-09-02T17:17:36.600Z,11.60
2022-09-02T17:20:06.453Z,11.20
2022-09-02T17:22:46.318Z,10.98
2022-09-02T17:25:20.167Z,12.32
2022-09-02T17:27:50.884Z,11.15
2022-09-02T17:30:23.120Z,11.38
2022-09-02T17:32:56.386Z,12.80
2022-09-02T17:35:30.668Z,12.13
2022-09-02T17:38:02.094Z,11.82
2022-09-02T17:40:52.712Z,12.70
2022-09-02T17:43:33.161Z,11.32
2022-09-02T17:46:11.013Z,12.85
2022-09-02T17:48:59.439Z,11.77
2022-09-02T17:51:33.538Z,11.48
2022-09-02T17:54:05.861Z,11.80
2022-09-02T17:56:58.754Z,11.63
2022-09-02T17:59:36.203Z,11.80
2022-09-02T18:02:28.302Z,12.05
2022-09-02T18:05:12.563Z,13.43
2022-09-02T18:07:51.078Z,12.90
2022-09-02T18:10:27.982Z,14.38
2022-09-02T18:13:04.257Z,12.77
2022-09-02T18:16:20.805Z,12.35
2022-09-02T18:19:13.589Z,11.73
2022-09-02T18:24:33.103Z,12.90
2022-09-02T18:27:11.908Z,13.52
2022-09-02T18:29:56.451Z,14.10
2022-09-02T18:32:45.219Z,13.65
2022-09-02T18:35:21.411Z,14.05
2022-09-02T18:37:58.895Z,16.25
2022-09-02T18:40:33.518Z,15.05
2022-09-02T18:43:08.652Z,16.98
2022-09-02T18:45:51.242Z,17.02
2022-09-02T18:48:28.900Z,18.70
2022-09-02T18:50:59.545Z,14.82
2022-09-02T18:53:31.755Z,15.27
2022-09-02T18:56:07.043Z,16.52
2022-09-02T18:58:38.984Z,17.27
2022-09-02T19:01:11.523Z,18.27
2022-09-02T19:03:43.021Z,16.65
2022-09-02T19:06:14.439Z,16.58
2022-09-02T19:08:44.885Z,17.83
2022-09-02T19:14:01.496Z,17.00
2022-09-02T19:16:34.253Z,19.10
2022-09-02T19:19:09.464Z,19.00
2022-09-02T19:21:41.459Z,19.63
2022-09-02T19:24:12.842Z,19.30
2022-09-02T19:26:50.193Z,20.45
2022-09-02T19:29:27.678Z,22.65
2022-09-02T19:32:02.578Z,21.05
2022-09-02T19:34:41.063Z,21.08
2022-09-02T19:37:12.373Z,21.27
2022-09-02T19:39:46.788Z,19.42
2022-09-02T19:42:24.259Z,20.42
2022-09-02T19:45:01.274Z,20.25
2022-09-02T19:50:32.249Z,19.38
2022-09-02T19:53:02.216Z,17.38
2022-09-02T19:55:36.267Z,16.50
2022-09-02T19:58:09.101Z,12.95
2022-09-02T20:00:43.007Z,11.95
2022-09-02T20:03:13.117Z,9.15
2022-09-02T20:05:44.288Z,9.02
2022-09-02T20:08:19.912Z,8.07
2022-09-02T20:10:59.760Z,9.30
2022-09-02T20:13:30.148Z,12.27
2022-09-02T20:16:03.730Z,11.95
2022-09-02T20:18:33.768Z,12.43
2022-09-02T20:21:06.259Z,10.07
2022-09-02T20:23:39.279Z,9.90
2022-09-02T20:26:16.447Z,10.60
2022-09-02T20:28:54.146Z,13.23
2022-09-02T20:31:29.408Z,14.77
2022-09-02T20:34:08.719Z,9.52
2022-09-02T20:36:47.497Z,8.63
2022-09-02T20:39:29.549Z,8.90
2022-09-02T20:42:02.883Z,7.28
2022-09-02T20:44:44.957Z,8.60
2022-09-02T20:47:26.127Z,7.32
2022-09-02T20:50:06.325Z,6.32
2022-09-02T20:52:48.644Z,6.80
2022-09-02T20:55:23.627Z,8.27
2022-09-02T20:58:40.977Z,7.07
2022-09-02T21:01:18.911Z,7.28
2022-09-02T21:03:57.867Z,7.45
2022-09-02T21:06:38.221Z,8.07
2022-09-02T21:09:17.179Z,7.32
2022-09-02T21:11:52.260Z,8.38
2022-09-02T21:14:26.398Z,8.27
2022-09-02T21:17:02.269Z,8.35
2022-09-02T21:19:35.082Z,8.32
2022-09-02T21:22:16.032Z,8.25
2022-09-02T21:24:53.402Z,9.00
2022-09-02T21:27:35.175Z,8.60
2022-09-02T21:30:17.730Z,9.70
2022-09-02T21:32:52.134Z,9.27
2022-09-02T21:35:24.308Z,8.52
2022-09-02T21:37:59.201Z,8.82
2022-09-02T21:40:34.254Z,8.55
2022-09-02T21:43:23.465Z,9.18
2022-09-02T21:45:57.447Z,8.50
2022-09-02T21:48:35.069Z,8.88
2022-09-02T21:51:06.632Z,9.32
2022-09-02T21:53:45.308Z,9.02
2022-09-02T21:56:24.934Z,9.13
2022-09-02T21:59:15.410Z,9.23
2022-09-02T22:01:52.897Z,9.82
2022-09-02T22:04:27.591Z,9.52
2022-09-02T22:07:00.298Z,9.23
2022-09-02T22:09:32.155Z,9.82
2022-09-02T22:12:10.240Z,9.60
2022-09-02T22:14:45.196Z,10.15
2022-09-02T22:17:17.826Z,9.75
2022-09-02T22:19:56.197Z,10.20
2022-09-02T22:22:30.091Z,10.23
2022-09-02T22:24:59.817Z,9.55
2022-09-02T22:27:35.843Z,10.30
2022-09-02T22:30:10.273Z,10.40
2022-09-02T22:32:51.107Z,11.52
2022-09-02T22:35:34.252Z,10.90
2022-09-02T22:38:12.589Z,10.55
2022-09-02T22:40:44.538Z,10.93
2022-09-02T22:43:21.926Z,10.00
2022-09-02T22:46:14.447Z,10.88
2022-09-02T22:52:06.416Z,10.95
2022-09-02T22:54:36.347Z,10.88
2022-09-02T22:57:12.941Z,11.00
2022-09-02T22:59:49.230Z,11.70
2022-09-02T23:02:21.604Z,12.20
2022-09-02T23:04:56.986Z,12.70
2022-09-02T23:07:27.197Z,11.32
2022-09-02T23:10:01.312Z,12.98
2022-09-02T23:12:37.122Z,12.60
2022-09-02T23:15:18.299Z,13.30
2022-09-02T23:18:04.833Z,13.38
2022-09-02T23:20:45.470Z,12.88
2022-09-02T23:23:24.913Z,13.63
2022-09-02T23:26:12.048Z,14.18
2022-09-02T23:28:50.638Z,13.55
2022-09-02T23:31:30.820Z,12.85
2022-09-02T23:34:14.306Z,13.00
2022-09-02T23:36:52.532Z,14.25
2022-09-02T23:39:33.470Z,13.77
2022-09-02T23:42:08.158Z,14.18
2022-09-02T23:44:40.172Z,14.73
2022-09-02T23:47:26.178Z,14.75
2022-09-02T23:50:03.480Z,14.80
2022-09-02T23:52:41.818Z,15.38
2022-09-02T23:55:24.177Z,14.32
2022-09-02T23:58:06.032Z,15.50
